メインページ
METAR-TAF:

METAR-TAF

空港 :

ヒューストン, テキサス州, アメリカ合衆国

ジョージ・ブッシュ・インターコンチネンタル空港

緯度: 29-59-33N, 経度: 095-21-50W, 海抜: 29m

現時点の気象観測

当レポートは18分前の10:53(UTC)に作成
無風
気温 27°C
湿度 89%
気圧 1013 hPa
視程: 12.9km
高度1500ftの雲はほとんどない
高度22000ftの千切れ雲あり

METAR: KIAH 201053Z 00000KT 8SM FEW015 BKN220 27/25 A2992 RMK AO2 SLP130 T02670250

時間: 06:11 (11:11 UTC)

予報

当レポートは2時間9分前の09:02(UTC)に作成
予報は20日の 09時(UTC)から 21日の 12時(UTC)まで有効
の風 3kt
視程: 10km
高度1200ftの雲はほとんどない
高度25000ftの千切れ雲あり
20日の 1100時(UTC)から
の風 4kt
視程: 9.7km
高度1000ftの雲は散在している
20日の 1500時(UTC)から
の風 8kt
視程: 10km
高度2500ftの千切れ雲あり
20日の 1800時(UTC)から
の風 10kt
視程: 10km
高度2500ftの雲は散在している
高度4000ftの千切れ雲あり
近辺でにわか雨
21日の 0100時(UTC)から
南/南東の風 6kt
視程: 10km
高度25000ftの雲はほとんどない

TAF: KIAH 200902Z 2009/2112 18003KT P6SM FEW012 BKN250 FM201100 17004KT 6SM BR SCT010 FM201500 17008KT P6SM BKN025 FM201800 18010KT P6SM VCSH SCT025 BKN040 FM210100 15006KT P6SM FEW250

4,000以上の空港の気象観測と天気予報(METAR報とTAF報)

利用可能な観測所は地図上に黄色い丸と赤い丸で示す。

丸の上にカーソルを重ねると観測所名を参照できる。

次にクリックすると気象観測と天気予報を参照できる。

マップの切り替え:黒色「×」印の緑ボタンをクリックして拡大、「-」印の緑ボタンをクリックして縮小、緑色の三角印をクリックして隣りの地図に切り替え


METAR-TAF: